Time;durP1;ratioP1;P1;durP2;ratioP2;P2;SDS_P1;SDS_P2;PMS_P1;PMS_P2;Temp;Humidity;BMP_temperature;BMP_pressure;BME280_temperature;BME280_humidity;BME280_pressure;Samples;Min_cycle;Max_cycle;Signal;HPM_P1;HPM_P2
2022/06/29 00:00:25;;;;;;;3.55;2.03;;;;;;;;;;5032117;28;20248;-50
2022/06/29 00:02:51;;;;;;;1.90;1.80;;;;;;;;;;5026841;28;20236;-52
2022/06/29 00:05:18;;;;;;;2.08;1.88;;;;;;;;;;5033894;28;20244;-52
2022/06/29 00:07:45;;;;;;;2.13;1.60;;;;;;;;;;5024768;28;20235;-52
2022/06/29 00:10:12;;;;;;;2.13;1.92;;;;;;;;;;5025966;28;20258;-52
2022/06/29 00:12:39;;;;;;;5.05;2.15;;;;;;;;;;5031834;28;20711;-53
2022/06/29 00:15:07;;;;;;;2.03;1.83;;;;;;;;;;5031307;28;20239;-51
2022/06/29 00:17:34;;;;;;;2.10;2.00;;;;;;;;;;5029474;28;20231;-51
2022/06/29 00:20:01;;;;;;;3.60;1.75;;;;;;;;;;5031591;28;20251;-51
2022/06/29 00:22:28;;;;;;;1.73;1.63;;;;;;;;;;5025604;28;20233;-52
2022/06/29 00:24:54;;;;;;;2.47;1.70;;;;;;;;;;5029950;28;20243;-52
2022/06/29 00:27:21;;;;;;;2.10;1.90;;;;;;;;;;5019714;28;20244;-51
2022/06/29 00:29:48;;;;;;;1.73;1.50;;;;;;;;;;5019762;28;20232;-51
2022/06/29 00:32:15;;;;;;;1.70;1.60;;;;;;;;;;5025001;28;20443;-51
2022/06/29 00:34:42;;;;;;;1.80;1.70;;;;;;;;;;5036521;28;20246;-52
2022/06/29 00:37:08;;;;;;;1.92;1.83;;;;;;;;;;5038497;28;20599;-52
2022/06/29 00:39:35;;;;;;;1.88;1.77;;;;;;;;;;5026300;28;20232;-55
2022/06/29 00:42:02;;;;;;;2.53;2.33;;;;;;;;;;5035743;28;20234;-51
2022/06/29 00:44:28;;;;;;;2.33;2.08;;;;;;;;;;5039795;28;20762;-51
2022/06/29 00:46:55;;;;;;;2.00;1.77;;;;;;;;;;5044534;28;20270;-51
2022/06/29 00:49:24;;;;;;;2.33;2.13;;;;;;;;;;5045700;28;20234;-51
2022/06/29 00:51:55;;;;;;;2.92;2.22;;;;;;;;;;5047014;28;20709;-52
2022/06/29 00:54:23;;;;;;;2.63;2.42;;;;;;;;;;5035915;28;20616;-53
2022/06/29 00:56:49;;;;;;;1.88;1.77;;;;;;;;;;5032423;28;20236;-52
2022/06/29 00:59:18;;;;;;;1.90;1.80;;;;;;;;;;5032127;28;20228;-52
2022/06/29 01:01:45;;;;;;;1.75;1.65;;;;;;;;;;5027322;28;20224;-51
2022/06/29 01:04:11;;;;;;;1.88;1.77;;;;;;;;;;5035432;28;20243;-51
2022/06/29 01:06:39;;;;;;;5.03;1.90;;;;;;;;;;5034328;28;20240;-51
2022/06/29 01:09:06;;;;;;;2.15;1.95;;;;;;;;;;5035388;28;20256;-51
2022/06/29 01:11:32;;;;;;;2.08;1.98;;;;;;;;;;5040588;28;20246;-53
2022/06/29 01:13:59;;;;;;;4.35;2.10;;;;;;;;;;5049325;28;20227;-52
2022/06/29 01:16:26;;;;;;;2.08;1.95;;;;;;;;;;5031942;28;20237;-50
2022/06/29 01:18:52;;;;;;;2.05;1.92;;;;;;;;;;5019592;28;20251;-52
2022/06/29 01:21:19;;;;;;;4.30;1.67;;;;;;;;;;5035446;28;20232;-51
2022/06/29 01:23:47;;;;;;;2.10;1.92;;;;;;;;;;5036490;28;20231;-51
2022/06/29 01:26:13;;;;;;;1.88;1.70;;;;;;;;;;5030217;28;20240;-52
2022/06/29 01:28:43;;;;;;;2.38;1.85;;;;;;;;;;5027975;28;20241;-51
2022/06/29 01:31:13;;;;;;;2.15;2.05;;;;;;;;;;5044684;28;20224;-52
2022/06/29 01:33:39;;;;;;;1.98;1.85;;;;;;;;;;5043867;28;20780;-52
2022/06/29 01:36:05;;;;;;;1.70;1.60;;;;;;;;;;5025390;28;20232;-52
2022/06/29 01:38:32;;;;;;;2.88;2.22;;;;;;;;;;5036142;28;20228;-51
2022/06/29 01:40:59;;;;;;;1.85;1.75;;;;;;;;;;5039906;28;20232;-51
2022/06/29 01:43:26;;;;;;;1.85;1.70;;;;;;;;;;5047082;28;20233;-51
2022/06/29 01:45:52;;;;;;;2.08;1.98;;;;;;;;;;5038295;28;20244;-52
2022/06/29 01:48:18;;;;;;;2.20;2.00;;;;;;;;;;5042853;28;20239;-51
2022/06/29 01:50:45;;;;;;;1.98;1.88;;;;;;;;;;5033142;28;20267;-51
2022/06/29 01:53:11;;;;;;;2.25;2.00;;;;;;;;;;5049842;28;20730;-51
2022/06/29 01:55:37;;;;;;;1.85;1.73;;;;;;;;;;5044080;28;20228;-51
2022/06/29 01:58:05;;;;;;;2.03;1.83;;;;;;;;;;5037069;28;20232;-51
2022/06/29 02:00:31;;;;;;;2.25;2.10;;;;;;;;;;5037875;28;20243;-51
2022/06/29 02:02:58;;;;;;;2.03;1.83;;;;;;;;;;5040574;28;20231;-52
2022/06/29 02:05:24;;;;;;;2.00;1.90;;;;;;;;;;5031819;28;20241;-53
2022/06/29 02:07:50;;;;;;;4.47;2.05;;;;;;;;;;5038664;28;20235;-52
2022/06/29 02:10:17;;;;;;;2.28;2.13;;;;;;;;;;5035863;28;20236;-51
2022/06/29 02:12:43;;;;;;;1.50;1.40;;;;;;;;;;5036447;28;20232;-51
2022/06/29 02:15:12;;;;;;;1.90;1.80;;;;;;;;;;5042986;28;20610;-51
2022/06/29 02:17:38;;;;;;;2.10;2.00;;;;;;;;;;5039878;28;20224;-51
2022/06/29 02:20:05;;;;;;;1.85;1.75;;;;;;;;;;5030704;28;20232;-51
2022/06/29 02:22:32;;;;;;;1.73;1.63;;;;;;;;;;5035447;28;20236;-53
2022/06/29 02:24:58;;;;;;;2.00;1.80;;;;;;;;;;5030661;28;20233;-50
2022/06/29 02:27:24;;;;;;;1.80;1.70;;;;;;;;;;5040532;28;20235;-51
2022/06/29 02:29:51;;;;;;;2.35;2.17;;;;;;;;;;5033353;28;20598;-51
2022/06/29 02:35:02;;;;;;;1.88;1.77;;;;;;;;;;5040808;28;20242;-50
2022/06/29 02:37:29;;;;;;;2.40;2.13;;;;;;;;;;5041556;28;20228;-51
2022/06/29 02:39:55;;;;;;;2.20;2.10;;;;;;;;;;5031937;28;20232;-51
2022/06/29 02:42:22;;;;;;;2.10;2.00;;;;;;;;;;5026977;28;20228;-50
2022/06/29 02:44:54;;;;;;;2.10;1.90;;;;;;;;;;5026869;28;20238;-51
2022/06/29 02:47:22;;;;;;;4.55;2.90;;;;;;;;;;5033439;28;20251;-51
2022/06/29 02:49:48;;;;;;;2.30;2.20;;;;;;;;;;5036360;28;20240;-51
2022/06/29 02:52:14;;;;;;;2.38;2.17;;;;;;;;;;5033547;28;20240;-51
2022/06/29 02:54:41;;;;;;;3.25;2.25;;;;;;;;;;5033884;28;20236;-52
2022/06/29 02:57:07;;;;;;;3.70;2.20;;;;;;;;;;5031571;28;20237;-51
2022/06/29 02:59:33;;;;;;;2.25;2.05;;;;;;;;;;5041677;28;20235;-51
2022/06/29 03:02:00;;;;;;;3.50;2.80;;;;;;;;;;5036701;28;20735;-51
2022/06/29 03:04:27;;;;;;;2.30;2.20;;;;;;;;;;5030860;28;20370;-50
2022/06/29 03:06:54;;;;;;;2.30;2.20;;;;;;;;;;5028937;28;20235;-50
2022/06/29 03:09:20;;;;;;;2.50;2.35;;;;;;;;;;5029837;28;20593;-51
2022/06/29 03:11:46;;;;;;;2.05;1.85;;;;;;;;;;5035241;28;20625;-51
2022/06/29 03:14:13;;;;;;;2.65;2.40;;;;;;;;;;5037279;28;20232;-50
2022/06/29 03:16:39;;;;;;;1.90;1.70;;;;;;;;;;5041458;28;20232;-51
2022/06/29 03:19:05;;;;;;;2.30;2.10;;;;;;;;;;5043666;28;20251;-50
2022/06/29 03:21:33;;;;;;;3.03;2.55;;;;;;;;;;5034679;28;20259;-51
2022/06/29 03:23:59;;;;;;;2.25;2.10;;;;;;;;;;5035327;28;20386;-51
2022/06/29 03:26:26;;;;;;;3.33;2.05;;;;;;;;;;5031296;28;20327;-51
2022/06/29 03:28:52;;;;;;;1.67;1.58;;;;;;;;;;5023942;28;20236;-51
2022/06/29 03:31:19;;;;;;;2.25;2.10;;;;;;;;;;5028435;28;20231;-51
2022/06/29 03:33:45;;;;;;;1.90;1.80;;;;;;;;;;5029050;28;20232;-51
2022/06/29 03:36:11;;;;;;;2.25;2.03;;;;;;;;;;5015300;28;20249;-51
2022/06/29 03:38:39;;;;;;;2.47;2.35;;;;;;;;;;5030971;28;20238;-51
2022/06/29 03:41:05;;;;;;;2.13;1.92;;;;;;;;;;5039378;28;20236;-51
2022/06/29 03:43:32;;;;;;;2.88;1.80;;;;;;;;;;5041148;28;20240;-51
2022/06/29 03:45:58;;;;;;;1.98;1.88;;;;;;;;;;5025277;28;20225;-51
2022/06/29 03:48:25;;;;;;;3.30;1.95;;;;;;;;;;5030106;28;20706;-51
2022/06/29 03:50:51;;;;;;;4.38;2.20;;;;;;;;;;5034604;28;20251;-51
2022/06/29 03:53:17;;;;;;;2.20;2.10;;;;;;;;;;5032162;28;20243;-51
2022/06/29 03:55:45;;;;;;;2.28;2.00;;;;;;;;;;5035816;28;20242;-52
2022/06/29 03:58:11;;;;;;;3.47;2.08;;;;;;;;;;5028743;28;20240;-51
2022/06/29 04:00:38;;;;;;;2.10;1.90;;;;;;;;;;5032492;28;20727;-52
2022/06/29 04:03:04;;;;;;;5.07;2.30;;;;;;;;;;5022382;28;20233;-52
2022/06/29 04:05:30;;;;;;;3.42;2.60;;;;;;;;;;5013519;28;20225;-51
2022/06/29 04:07:57;;;;;;;2.60;2.40;;;;;;;;;;5038599;28;20231;-53
2022/06/29 04:10:23;;;;;;;1.98;1.85;;;;;;;;;;5042689;28;20232;-51
2022/06/29 04:12:51;;;;;;;2.83;1.98;;;;;;;;;;5044784;28;20612;-52
2022/06/29 04:15:17;;;;;;;3.20;2.20;;;;;;;;;;5045385;28;20235;-53
2022/06/29 04:17:44;;;;;;;2.47;2.28;;;;;;;;;;5042595;28;20238;-51
2022/06/29 04:21:05;;;;;;;2.88;1.90;;;;;;;;;;5044367;28;20257;-53
2022/06/29 04:23:00;;;;;;;3.22;2.30;;;;;;;;;;5039749;28;20905;-51
2022/06/29 04:25:26;;;;;;;2.22;2.08;;;;;;;;;;5025733;28;20311;-51
2022/06/29 04:27:54;;;;;;;2.13;1.92;;;;;;;;;;5037251;28;20251;-51
2022/06/29 04:30:20;;;;;;;2.05;1.95;;;;;;;;;;5036580;28;20225;-51
2022/06/29 04:32:47;;;;;;;2.15;1.95;;;;;;;;;;5036555;28;20224;-54
2022/06/29 04:35:13;;;;;;;3.15;2.05;;;;;;;;;;5027457;28;20729;-52
2022/06/29 04:37:39;;;;;;;2.45;1.85;;;;;;;;;;5021092;28;20243;-52
2022/06/29 04:40:06;;;;;;;4.78;1.77;;;;;;;;;;5023178;28;20240;-52
2022/06/29 04:42:33;;;;;;;2.50;2.30;;;;;;;;;;5023990;28;20251;-50
2022/06/29 04:45:00;;;;;;;2.85;2.13;;;;;;;;;;5029680;28;20235;-52
2022/06/29 04:47:27;;;;;;;2.95;2.00;;;;;;;;;;5031928;28;20231;-52
2022/06/29 04:49:53;;;;;;;2.15;1.92;;;;;;;;;;5026064;28;20227;-53
2022/06/29 04:52:19;;;;;;;2.40;2.03;;;;;;;;;;5037513;28;20232;-51
2022/06/29 04:54:46;;;;;;;2.30;2.13;;;;;;;;;;5047995;28;20894;-52
2022/06/29 04:57:12;;;;;;;2.30;2.10;;;;;;;;;;5034354;28;20594;-51
2022/06/29 04:59:38;;;;;;;1.92;1.77;;;;;;;;;;5043881;28;20228;-50
2022/06/29 05:02:06;;;;;;;2.35;2.15;;;;;;;;;;5022946;28;20235;-52
2022/06/29 05:04:35;;;;;;;3.03;1.85;;;;;;;;;;5021149;28;20255;-52
2022/06/29 05:07:01;;;;;;;2.28;2.05;;;;;;;;;;5027408;28;20609;-52
2022/06/29 05:09:27;;;;;;;2.10;1.83;;;;;;;;;;5028097;28;20260;-50
2022/06/29 05:11:54;;;;;;;3.10;1.98;;;;;;;;;;5028070;28;20240;-51
2022/06/29 05:14:21;;;;;;;1.85;1.75;;;;;;;;;;5029595;28;20232;-54
2022/06/29 05:16:47;;;;;;;2.50;2.30;;;;;;;;;;5025977;28;20233;-52
2022/06/29 05:19:15;;;;;;;2.30;2.10;;;;;;;;;;5026927;28;20232;-52
2022/06/29 05:21:41;;;;;;;2.33;2.13;;;;;;;;;;5041976;28;20259;-52
2022/06/29 05:24:08;;;;;;;2.47;2.28;;;;;;;;;;5031304;28;20236;-52
2022/06/29 05:26:34;;;;;;;2.08;1.95;;;;;;;;;;5026821;28;20611;-51
2022/06/29 05:29:00;;;;;;;2.30;2.10;;;;;;;;;;5026391;28;20240;-51
2022/06/29 05:31:29;;;;;;;2.25;2.03;;;;;;;;;;5035377;28;20246;-52
2022/06/29 05:33:55;;;;;;;2.78;1.67;;;;;;;;;;5032971;28;20256;-51
2022/06/29 05:36:23;;;;;;;1.85;1.75;;;;;;;;;;5043798;28;20319;-52
2022/06/29 05:38:50;;;;;;;2.00;1.90;;;;;;;;;;5038821;28;20319;-51
2022/06/29 05:41:17;;;;;;;3.38;1.90;;;;;;;;;;5037363;28;20324;-50
2022/06/29 05:43:44;;;;;;;6.47;2.67;;;;;;;;;;5035021;28;20807;-50
2022/06/29 05:46:11;;;;;;;2.60;1.77;;;;;;;;;;5026832;28;20240;-51
2022/06/29 05:48:38;;;;;;;3.28;1.83;;;;;;;;;;5046447;28;20705;-51
2022/06/29 05:51:04;;;;;;;1.60;1.50;;;;;;;;;;5035623;28;20232;-52
2022/06/29 05:53:32;;;;;;;2.28;2.03;;;;;;;;;;5031218;28;20228;-52
2022/06/29 05:55:58;;;;;;;2.35;1.60;;;;;;;;;;5044653;28;20230;-52
2022/06/29 05:58:25;;;;;;;2.13;1.92;;;;;;;;;;5047734;28;20841;-52
2022/06/29 06:00:51;;;;;;;4.38;2.40;;;;;;;;;;5044145;28;20603;-52
2022/06/29 06:03:18;;;;;;;3.80;2.08;;;;;;;;;;5044781;28;20236;-51
2022/06/29 06:05:45;;;;;;;1.67;1.58;;;;;;;;;;5044908;28;20294;-52
2022/06/29 06:08:13;;;;;;;3.30;2.30;;;;;;;;;;5040645;28;20244;-52
2022/06/29 06:10:41;;;;;;;2.17;1.95;;;;;;;;;;5047027;28;20696;-52
2022/06/29 06:13:07;;;;;;;4.65;1.73;;;;;;;;;;5037986;28;20240;-50
2022/06/29 06:15:33;;;;;;;1.77;1.67;;;;;;;;;;5032249;28;20231;-52
2022/06/29 06:18:01;;;;;;;2.55;1.77;;;;;;;;;;5027186;28;20224;-51
2022/06/29 06:20:27;;;;;;;1.83;1.70;;;;;;;;;;5024661;28;20694;-51
2022/06/29 06:22:53;;;;;;;2.00;1.80;;;;;;;;;;5030101;28;20605;-52
2022/06/29 06:25:20;;;;;;;2.83;1.63;;;;;;;;;;5044404;28;20235;-51
2022/06/29 06:27:47;;;;;;;4.03;2.03;;;;;;;;;;5037460;28;20823;-51
2022/06/29 06:30:14;;;;;;;5.95;1.70;;;;;;;;;;5043117;28;20236;-51
2022/06/29 06:32:40;;;;;;;3.63;1.60;;;;;;;;;;5043541;28;20339;-50
2022/06/29 06:35:07;;;;;;;1.63;1.52;;;;;;;;;;5039847;28;20237;-53
2022/06/29 06:37:34;;;;;;;1.55;1.45;;;;;;;;;;5032570;28;20229;-52
2022/06/29 06:42:44;;;;;;;2.00;1.73;;;;;;;;;;5025076;28;20235;-52
2022/06/29 06:45:12;;;;;;;2.80;2.00;;;;;;;;;;5026314;28;20311;-53
2022/06/29 06:47:38;;;;;;;2.08;1.85;;;;;;;;;;5029007;28;20243;-51
2022/06/29 06:50:05;;;;;;;1.70;1.60;;;;;;;;;;5032519;28;20316;-51
2022/06/29 06:52:31;;;;;;;4.30;1.80;;;;;;;;;;5034233;28;20250;-55
2022/06/29 06:54:57;;;;;;;2.42;2.00;;;;;;;;;;5029926;28;20245;-51
2022/06/29 06:57:24;;;;;;;1.45;1.35;;;;;;;;;;5025367;28;20234;-53
2022/06/29 06:59:53;;;;;;;4.28;2.35;;;;;;;;;;5035493;28;20251;-52
2022/06/29 07:02:20;;;;;;;3.47;1.98;;;;;;;;;;5037313;28;20239;-52
2022/06/29 07:04:47;;;;;;;2.75;1.80;;;;;;;;;;5042145;28;20232;-51
2022/06/29 07:07:13;;;;;;;1.50;1.40;;;;;;;;;;5032555;28;20275;-51
2022/06/29 07:09:40;;;;;;;4.45;1.83;;;;;;;;;;5031976;28;20228;-52
2022/06/29 07:12:06;;;;;;;1.75;1.65;;;;;;;;;;5032244;28;20240;-52
2022/06/29 07:14:33;;;;;;;1.83;1.73;;;;;;;;;;5032970;28;20239;-51
2022/06/29 07:16:59;;;;;;;1.50;1.40;;;;;;;;;;5033156;28;20231;-51
2022/06/29 07:19:27;;;;;;;3.00;1.40;;;;;;;;;;5022176;28;20596;-52
2022/06/29 07:21:54;;;;;;;2.90;1.98;;;;;;;;;;5021378;28;20233;-52
2022/06/29 07:24:20;;;;;;;1.25;1.15;;;;;;;;;;5039263;28;20602;-52
2022/06/29 07:26:47;;;;;;;2.42;1.40;;;;;;;;;;5032981;28;20232;-51
2022/06/29 07:29:13;;;;;;;2.35;1.70;;;;;;;;;;5023559;28;20232;-53
2022/06/29 07:31:39;;;;;;;1.60;1.42;;;;;;;;;;5033987;28;20239;-51
2022/06/29 07:34:06;;;;;;;1.50;1.40;;;;;;;;;;5033662;28;20239;-52
2022/06/29 07:36:33;;;;;;;2.78;1.63;;;;;;;;;;5037983;28;20318;-51
2022/06/29 07:39:00;;;;;;;2.67;1.65;;;;;;;;;;5024941;28;20228;-51
2022/06/29 07:41:26;;;;;;;4.50;1.63;;;;;;;;;;5027417;28;20312;-52
2022/06/29 07:43:53;;;;;;;2.55;1.40;;;;;;;;;;5035529;28;20233;-53
2022/06/29 07:46:19;;;;;;;5.10;1.58;;;;;;;;;;5027687;28;20702;-51
2022/06/29 07:48:46;;;;;;;2.80;1.50;;;;;;;;;;5031351;28;20232;-51
2022/06/29 07:51:12;;;;;;;1.98;1.30;;;;;;;;;;5035291;28;20285;-52
2022/06/29 07:53:40;;;;;;;3.78;1.15;;;;;;;;;;5041324;28;20231;-52
2022/06/29 07:56:06;;;;;;;1.48;1.25;;;;;;;;;;5018289;28;20228;-52
2022/06/29 07:58:33;;;;;;;2.97;1.75;;;;;;;;;;5026562;28;20237;-51
2022/06/29 08:00:59;;;;;;;1.38;1.13;;;;;;;;;;5041660;28;20317;-51
2022/06/29 08:03:25;;;;;;;2.13;1.60;;;;;;;;;;5035780;28;20236;-52
2022/06/29 08:05:52;;;;;;;3.42;1.00;;;;;;;;;;5032538;28;20228;-51
2022/06/29 08:08:18;;;;;;;1.30;1.20;;;;;;;;;;5033995;28;20248;-53
2022/06/29 08:10:46;;;;;;;1.30;1.20;;;;;;;;;;5038933;28;20238;-50
2022/06/29 08:13:12;;;;;;;1.83;1.50;;;;;;;;;;5036244;28;20244;-51
2022/06/29 08:15:38;;;;;;;1.73;1.27;;;;;;;;;;5034339;28;20234;-52
2022/06/29 08:18:05;;;;;;;5.82;1.70;;;;;;;;;;5035056;28;20232;-51
2022/06/29 08:20:31;;;;;;;3.28;1.40;;;;;;;;;;5040666;28;20790;-51
2022/06/29 08:22:58;;;;;;;1.83;1.10;;;;;;;;;;5036463;28;20235;-51
2022/06/29 08:25:24;;;;;;;0.90;0.90;;;;;;;;;;5026118;28;20327;-53
2022/06/29 08:27:53;;;;;;;3.05;1.00;;;;;;;;;;5030518;28;20428;-52
2022/06/29 08:30:19;;;;;;;1.27;1.17;;;;;;;;;;5031986;28;20233;-52
2022/06/29 08:32:46;;;;;;;1.80;1.00;;;;;;;;;;5027916;28;20239;-52
2022/06/29 08:35:13;;;;;;;1.20;1.10;;;;;;;;;;5028323;28;20238;-51
2022/06/29 08:37:40;;;;;;;3.22;2.10;;;;;;;;;;5031962;28;20232;-52
2022/06/29 08:40:07;;;;;;;3.45;1.60;;;;;;;;;;5034891;28;20372;-52
2022/06/29 08:42:35;;;;;;;1.63;1.15;;;;;;;;;;5045231;28;20796;-52
2022/06/29 08:45:04;;;;;;;2.45;0.98;;;;;;;;;;5040749;28;20232;-50
2022/06/29 08:47:30;;;;;;;1.58;0.95;;;;;;;;;;5039705;28;20603;-52
2022/06/29 08:49:57;;;;;;;1.65;0.88;;;;;;;;;;5037126;28;20702;-51
2022/06/29 08:52:25;;;;;;;1.30;1.10;;;;;;;;;;5027346;28;20235;-52
2022/06/29 08:54:53;;;;;;;1.40;0.95;;;;;;;;;;5028564;28;20717;-52
2022/06/29 08:57:20;;;;;;;1.77;1.00;;;;;;;;;;5029996;28;20240;-51
2022/06/29 08:59:46;;;;;;;2.28;1.30;;;;;;;;;;5032180;28;21276;-52
2022/06/29 09:02:14;;;;;;;1.23;1.13;;;;;;;;;;5036408;28;20224;-52
2022/06/29 09:04:41;;;;;;;2.00;1.02;;;;;;;;;;5044163;28;20243;-52
2022/06/29 09:07:07;;;;;;;1.48;1.05;;;;;;;;;;5041777;28;20238;-51
2022/06/29 09:09:48;;;;;;;0.93;0.93;;;;;;;;;;5039559;28;20231;-51
2022/06/29 09:12:18;;;;;;;0.98;0.90;;;;;;;;;;5043297;28;20223;-51
2022/06/29 09:14:44;;;;;;;3.25;0.90;;;;;;;;;;5043867;28;20289;-50
2022/06/29 09:17:11;;;;;;;0.90;0.90;;;;;;;;;;5044749;28;20236;-50
2022/06/29 09:19:45;;;;;;;1.42;1.05;;;;;;;;;;5043877;28;20238;-51
2022/06/29 09:22:11;;;;;;;1.42;1.02;;;;;;;;;;5043315;28;20239;-51
2022/06/29 09:24:38;;;;;;;1.05;1.02;;;;;;;;;;5035096;28;20247;-51
2022/06/29 09:27:05;;;;;;;0.93;0.85;;;;;;;;;;5024155;28;20576;-52
2022/06/29 09:29:32;;;;;;;1.25;1.13;;;;;;;;;;5029424;28;20248;-50
2022/06/29 09:32:11;;;;;;;4.43;1.45;;;;;;;;;;5023330;28;20232;-52
2022/06/29 09:34:39;;;;;;;1.10;1.00;;;;;;;;;;5041223;28;20231;-52
2022/06/29 09:37:08;;;;;;;3.17;0.98;;;;;;;;;;5043977;28;20239;-51
2022/06/29 09:39:36;;;;;;;1.60;1.25;;;;;;;;;;5045419;28;20228;-51
2022/06/29 09:42:02;;;;;;;1.30;1.20;;;;;;;;;;5043967;28;20227;-51
2022/06/29 09:44:29;;;;;;;2.58;0.98;;;;;;;;;;5041098;28;20228;-50
2022/06/29 09:46:56;;;;;;;1.98;1.20;;;;;;;;;;5043392;28;20733;-52
2022/06/29 09:49:25;;;;;;;2.05;1.30;;;;;;;;;;5045700;28;20243;-51
2022/06/29 09:51:54;;;;;;;2.22;1.15;;;;;;;;;;5042244;28;20234;-52
2022/06/29 09:54:24;;;;;;;1.30;0.98;;;;;;;;;;5038266;28;20227;-51
2022/06/29 09:56:51;;;;;;;1.42;1.00;;;;;;;;;;5048076;28;20733;-52
2022/06/29 09:59:22;;;;;;;1.20;1.05;;;;;;;;;;5042147;28;20243;-51
2022/06/29 10:04:32;;;;;;;2.05;1.33;;;;;;;;;;5043718;28;20594;-52
2022/06/29 10:06:59;;;;;;;2.35;1.30;;;;;;;;;;5045201;28;20224;-52
2022/06/29 10:09:27;;;;;;;1.38;0.93;;;;;;;;;;5042343;28;20232;-51
2022/06/29 10:14:50;;;;;;;1.10;1.00;;;;;;;;;;5038832;28;20247;-51
2022/06/29 10:17:24;;;;;;;4.63;1.70;;;;;;;;;;5041761;28;20235;-51
2022/06/29 10:19:57;;;;;;;0.80;0.80;;;;;;;;;;5037396;28;20703;-53
2022/06/29 10:22:23;;;;;;;1.13;1.02;;;;;;;;;;5044873;28;20659;-52
2022/06/29 10:25:09;;;;;;;4.30;1.20;;;;;;;;;;5040434;28;20243;-51
2022/06/29 10:27:36;;;;;;;1.40;1.30;;;;;;;;;;5042443;28;20251;-52
2022/06/29 10:30:26;;;;;;;2.88;1.63;;;;;;;;;;5040878;28;20227;-52
2022/06/29 10:32:53;;;;;;;6.28;1.40;;;;;;;;;;5027749;28;20242;-52
2022/06/29 10:35:19;;;;;;;2.50;1.45;;;;;;;;;;5032973;28;20224;-52
2022/06/29 10:37:50;;;;;;;1.40;1.30;;;;;;;;;;5032863;28;20323;-53
2022/06/29 10:40:17;;;;;;;2.05;1.33;;;;;;;;;;5034346;28;20244;-51
2022/06/29 10:45:36;;;;;;;2.92;1.20;;;;;;;;;;5036439;28;20346;-52
2022/06/29 10:48:31;;;;;;;1.45;1.15;;;;;;;;;;5040447;28;20240;-52
2022/06/29 10:50:57;;;;;;;1.35;1.25;;;;;;;;;;5027156;28;20241;-53
2022/06/29 10:53:24;;;;;;;4.47;1.45;;;;;;;;;;5026641;28;21364;-52
2022/06/29 10:55:52;;;;;;;1.08;0.98;;;;;;;;;;5027008;28;20231;-52
2022/06/29 10:58:20;;;;;;;1.95;1.75;;;;;;;;;;5040025;28;20232;-52
2022/06/29 11:00:47;;;;;;;1.50;1.17;;;;;;;;;;5042440;28;20238;-53
2022/06/29 11:03:15;;;;;;;1.98;1.08;;;;;;;;;;5039975;28;20236;-53
2022/06/29 11:13:58;;;;;;;3.15;1.73;;;;;;;;;;5038594;28;20246;-51
2022/06/29 11:16:34;;;;;;;1.23;1.10;;;;;;;;;;5042633;28;20228;-53
2022/06/29 11:19:01;;;;;;;2.13;1.52;;;;;;;;;;5037280;28;20716;-52
2022/06/29 11:21:29;;;;;;;0.98;0.98;;;;;;;;;;5040040;28;20239;-54
2022/06/29 11:23:56;;;;;;;1.50;1.27;;;;;;;;;;5030021;28;20241;-53
2022/06/29 11:26:23;;;;;;;1.52;0.93;;;;;;;;;;5037148;28;20259;-53
2022/06/29 11:28:49;;;;;;;3.40;1.02;;;;;;;;;;5037336;28;20725;-52
2022/06/29 11:31:18;;;;;;;3.65;1.23;;;;;;;;;;5028688;28;20236;-52
2022/06/29 11:33:45;;;;;;;1.83;1.00;;;;;;;;;;5048300;28;20239;-53
2022/06/29 11:36:12;;;;;;;3.10;1.17;;;;;;;;;;5030083;28;20228;-51
2022/06/29 11:38:39;;;;;;;1.40;1.15;;;;;;;;;;5045178;28;20232;-51
2022/06/29 11:41:12;;;;;;;2.95;1.20;;;;;;;;;;5042820;28;20422;-52
2022/06/29 11:43:39;;;;;;;1.63;1.13;;;;;;;;;;5045788;28;20250;-53
2022/06/29 11:46:05;;;;;;;2.88;1.30;;;;;;;;;;5042316;28;20297;-52
2022/06/29 11:49:33;;;;;;;1.40;1.30;;;;;;;;;;5028263;28;20709;-53
2022/06/29 11:51:19;;;;;;;1.10;1.10;;;;;;;;;;5019866;28;20832;-53
2022/06/29 11:53:47;;;;;;;1.83;1.00;;;;;;;;;;5033247;28;20242;-52
2022/06/29 11:56:14;;;;;;;1.05;0.95;;;;;;;;;;5034753;28;20709;-51
2022/06/29 11:58:42;;;;;;;1.77;1.10;;;;;;;;;;5034563;28;20338;-53
2022/06/29 12:01:10;;;;;;;2.25;1.30;;;;;;;;;;5023772;28;20762;-52
2022/06/29 12:03:38;;;;;;;1.23;1.15;;;;;;;;;;5031062;28;20242;-55
2022/06/29 12:06:05;;;;;;;3.28;1.38;;;;;;;;;;5036760;28;20240;-53
2022/06/29 12:08:31;;;;;;;1.10;0.95;;;;;;;;;;5014397;28;20492;-51
2022/06/29 12:10:57;;;;;;;5.10;1.38;;;;;;;;;;5010378;28;20236;-52
2022/06/29 12:13:24;;;;;;;2.20;1.58;;;;;;;;;;5031022;28;20240;-53
2022/06/29 12:15:50;;;;;;;2.50;1.70;;;;;;;;;;5037403;28;20429;-51
2022/06/29 12:18:17;;;;;;;2.45;1.27;;;;;;;;;;5038488;28;20256;-53
2022/06/29 12:20:44;;;;;;;4.88;0.98;;;;;;;;;;5033602;28;20302;-54
2022/06/29 12:23:11;;;;;;;1.15;1.05;;;;;;;;;;5037890;28;20267;-52
2022/06/29 12:25:37;;;;;;;2.58;1.13;;;;;;;;;;5038475;28;20231;-51
2022/06/29 12:28:03;;;;;;;3.22;1.10;;;;;;;;;;5036717;28;20239;-51
2022/06/29 12:30:30;;;;;;;3.30;1.13;;;;;;;;;;5027102;28;20237;-52
2022/06/29 12:32:56;;;;;;;2.13;1.52;;;;;;;;;;5038911;28;20274;-51
2022/06/29 12:35:23;;;;;;;1.40;1.10;;;;;;;;;;5031593;28;21120;-51
2022/06/29 12:37:53;;;;;;;2.40;1.65;;;;;;;;;;5011030;28;20248;-53
2022/06/29 12:40:20;;;;;;;1.30;1.20;;;;;;;;;;5026367;28;20580;-52
2022/06/29 12:42:47;;;;;;;1.65;0.98;;;;;;;;;;5017940;28;20233;-54
2022/06/29 12:45:13;;;;;;;1.08;0.90;;;;;;;;;;5033322;28;20711;-52
2022/06/29 12:47:40;;;;;;;2.30;1.13;;;;;;;;;;5038806;28;20227;-51
2022/06/29 12:50:06;;;;;;;0.98;0.80;;;;;;;;;;5032648;28;20240;-52
2022/06/29 12:52:32;;;;;;;2.17;0.90;;;;;;;;;;5041847;28;20232;-51
2022/06/29 12:55:00;;;;;;;4.70;1.17;;;;;;;;;;5038618;28;20240;-52
2022/06/29 12:57:26;;;;;;;3.78;1.63;;;;;;;;;;5031244;28;20232;-53
2022/06/29 12:59:53;;;;;;;1.88;1.13;;;;;;;;;;5034128;28;20253;-53
2022/06/29 13:02:21;;;;;;;1.65;1.23;;;;;;;;;;5016684;28;20272;-52
2022/06/29 13:04:48;;;;;;;2.20;0.98;;;;;;;;;;5015605;28;20236;-52
2022/06/29 13:07:14;;;;;;;4.90;1.02;;;;;;;;;;5038779;28;20234;-52
2022/06/29 13:09:41;;;;;;;1.13;1.02;;;;;;;;;;5029616;28;20980;-51
2022/06/29 13:12:09;;;;;;;2.65;1.17;;;;;;;;;;5035933;28;20732;-56
2022/06/29 13:14:35;;;;;;;2.38;0.90;;;;;;;;;;5037395;28;20236;-52
2022/06/29 13:17:02;;;;;;;2.45;1.00;;;;;;;;;;5035639;28;20239;-51
2022/06/29 13:19:28;;;;;;;1.17;1.08;;;;;;;;;;5036852;28;20228;-51
2022/06/29 13:21:55;;;;;;;2.13;0.93;;;;;;;;;;5033636;28;20733;-53
2022/06/29 13:24:21;;;;;;;2.47;1.10;;;;;;;;;;5032819;28;20246;-51
2022/06/29 13:26:47;;;;;;;1.40;1.30;;;;;;;;;;5028028;28;20235;-53
2022/06/29 13:29:15;;;;;;;3.47;1.42;;;;;;;;;;5042684;28;20252;-52
2022/06/29 13:31:42;;;;;;;2.63;1.15;;;;;;;;;;5017929;28;20228;-52
2022/06/29 13:34:08;;;;;;;2.25;1.55;;;;;;;;;;5027838;28;20232;-52
2022/06/29 13:36:35;;;;;;;2.55;1.50;;;;;;;;;;5041093;28;20227;-56
2022/06/29 13:39:01;;;;;;;5.78;1.42;;;;;;;;;;5035228;28;20726;-52
2022/06/29 13:41:27;;;;;;;2.30;1.30;;;;;;;;;;5030911;28;20239;-51
2022/06/29 13:43:54;;;;;;;1.73;1.30;;;;;;;;;;5036402;28;20323;-52
2022/06/29 13:46:21;;;;;;;1.58;1.00;;;;;;;;;;5036604;28;20238;-52
2022/06/29 13:48:48;;;;;;;0.82;0.80;;;;;;;;;;5034609;28;20254;-52
2022/06/29 13:51:14;;;;;;;1.23;1.10;;;;;;;;;;5035347;28;20240;-51
2022/06/29 13:53:40;;;;;;;1.10;1.00;;;;;;;;;;5030536;28;20244;-52
2022/06/29 13:56:07;;;;;;;3.60;1.45;;;;;;;;;;5028853;28;20238;-51
2022/06/29 13:58:33;;;;;;;5.85;1.45;;;;;;;;;;5030819;28;20232;-52
2022/06/29 14:01:00;;;;;;;2.03;1.27;;;;;;;;;;5035410;28;20319;-52
2022/06/29 14:03:27;;;;;;;1.60;1.15;;;;;;;;;;5031332;28;20255;-51
2022/06/29 14:05:54;;;;;;;1.23;0.93;;;;;;;;;;5035029;28;20236;-52
2022/06/29 14:08:21;;;;;;;1.55;1.10;;;;;;;;;;5034766;28;20788;-52
2022/06/29 14:10:48;;;;;;;1.17;1.08;;;;;;;;;;5042793;28;20238;-55
2022/06/29 14:13:14;;;;;;;2.10;0.98;;;;;;;;;;5030945;28;20236;-52
2022/06/29 14:15:43;;;;;;;1.20;1.10;;;;;;;;;;5037198;28;20239;-52
2022/06/29 14:18:09;;;;;;;1.23;1.13;;;;;;;;;;5039120;28;20945;-50
2022/06/29 14:20:37;;;;;;;2.42;0.90;;;;;;;;;;5036076;28;20232;-51
2022/06/29 14:23:04;;;;;;;1.45;1.10;;;;;;;;;;5037271;28;20232;-52
2022/06/29 14:25:30;;;;;;;1.17;1.08;;;;;;;;;;5031567;28;20312;-50
2022/06/29 14:27:57;;;;;;;1.92;0.90;;;;;;;;;;5028935;28;20228;-54
2022/06/29 14:30:23;;;;;;;1.27;1.20;;;;;;;;;;5026899;28;20236;-52
2022/06/29 14:32:50;;;;;;;0.60;0.60;;;;;;;;;;5039352;28;20224;-52
2022/06/29 14:35:16;;;;;;;1.20;1.10;;;;;;;;;;5013890;28;20237;-51
2022/06/29 14:37:44;;;;;;;3.65;1.30;;;;;;;;;;5032889;28;20227;-52
2022/06/29 14:40:10;;;;;;;1.45;1.02;;;;;;;;;;5026083;28;20235;-52
2022/06/29 14:42:36;;;;;;;1.58;1.25;;;;;;;;;;5033874;28;20435;-51
2022/06/29 14:45:03;;;;;;;0.98;0.90;;;;;;;;;;5039203;28;20615;-52
2022/06/29 14:47:29;;;;;;;3.40;1.02;;;;;;;;;;5038886;28;20235;-52
2022/06/29 14:49:55;;;;;;;1.10;1.10;;;;;;;;;;5041086;28;20461;-52
2022/06/29 14:52:22;;;;;;;1.20;0.90;;;;;;;;;;5042932;28;20223;-52
2022/06/29 14:54:50;;;;;;;1.13;1.10;;;;;;;;;;5043728;28;20407;-52
2022/06/29 14:57:16;;;;;;;2.90;0.98;;;;;;;;;;5041003;28;20232;-51
2022/06/29 14:59:42;;;;;;;3.17;1.17;;;;;;;;;;5042571;28;20238;-51
2022/06/29 15:02:09;;;;;;;2.88;1.20;;;;;;;;;;5039390;28;20235;-52
2022/06/29 15:04:35;;;;;;;1.92;1.05;;;;;;;;;;5041749;28;20232;-52